createdAt,value
2019-04-21T00:02:06.660Z,33.00
2019-04-21T00:04:52.052Z,33.00
2019-04-21T00:07:31.607Z,32.90
2019-04-21T00:10:06.303Z,32.80
2019-04-21T00:12:38.913Z,32.60
2019-04-21T00:15:02.112Z,32.50
2019-04-21T00:17:29.896Z,32.40
2019-04-21T00:20:12.478Z,32.10
2019-04-21T00:22:52.115Z,32.00
2019-04-21T00:25:27.542Z,31.80
2019-04-21T00:28:03.156Z,31.70
2019-04-21T00:30:41.224Z,31.60
2019-04-21T00:33:03.114Z,31.60
2019-04-21T00:35:29.379Z,31.50
2019-04-21T00:38:17.208Z,31.40
2019-04-21T00:40:55.424Z,31.40
2019-04-21T00:43:25.262Z,31.30
2019-04-21T00:45:53.602Z,31.30
2019-04-21T00:48:36.567Z,31.20
2019-04-21T00:51:25.022Z,31.10
2019-04-21T00:56:21.828Z,31.00
2019-04-21T00:58:59.900Z,30.80
2019-04-21T01:01:27.972Z,30.80
2019-04-21T01:04:06.224Z,30.80
2019-04-21T01:06:39.747Z,30.70
2019-04-21T01:09:07.950Z,30.60
2019-04-21T01:11:47.478Z,30.50
2019-04-21T01:14:25.899Z,30.50
2019-04-21T01:16:53.304Z,30.50
2019-04-21T01:19:23.797Z,30.40
2019-04-21T01:21:37.530Z,30.40
2019-04-21T01:24:16.896Z,30.40
2019-04-21T01:26:55.646Z,30.30
2019-04-21T01:29:44.168Z,30.30
2019-04-21T01:32:19.625Z,30.30
2019-04-21T01:34:45.463Z,30.30
2019-04-21T01:37:15.826Z,30.20
2019-04-21T01:39:55.341Z,30.20
2019-04-21T01:42:25.633Z,30.20
2019-04-21T01:44:59.949Z,30.20
2019-04-21T01:47:29.337Z,30.10
2019-04-21T01:49:56.799Z,30.20
2019-04-21T01:52:44.220Z,30.20
2019-04-21T01:55:25.158Z,30.20
2019-04-21T01:58:02.860Z,30.30
2019-04-21T02:00:55.051Z,30.30
2019-04-21T02:03:49.698Z,30.20
2019-04-21T02:06:11.317Z,30.20
2019-04-21T02:08:34.550Z,30.20
2019-04-21T02:11:17.004Z,30.10
2019-04-21T02:13:55.578Z,30.10
2019-04-21T02:16:18.584Z,30.00
2019-04-21T02:18:53.076Z,30.00
2019-04-21T02:21:21.709Z,30.00
2019-04-21T02:24:04.976Z,30.00
2019-04-21T02:26:36.142Z,30.00
2019-04-21T02:29:18.320Z,30.00
2019-04-21T02:31:57.188Z,30.00
2019-04-21T02:34:32.276Z,30.00
2019-04-21T02:39:37.378Z,30.00
2019-04-21T02:42:15.037Z,30.00
2019-04-21T02:44:46.292Z,30.00
2019-04-21T02:47:16.897Z,30.00
2019-04-21T02:52:31.886Z,30.00
2019-04-21T02:55:02.925Z,30.10
2019-04-21T02:57:32.142Z,30.10
2019-04-21T03:00:15.670Z,30.30
2019-04-21T03:03:06.993Z,30.50
2019-04-21T03:05:50.509Z,30.70
2019-04-21T03:08:34.357Z,30.80
2019-04-21T03:11:07.388Z,30.90
2019-04-21T03:13:44.499Z,31.00
2019-04-21T03:18:46.043Z,31.00
2019-04-21T03:23:57.295Z,31.00
2019-04-21T03:26:28.278Z,31.10
2019-04-21T03:29:00.896Z,31.10
2019-04-21T03:39:01.215Z,31.10
2019-04-21T03:41:48.363Z,31.10
2019-04-21T03:44:26.700Z,31.10
2019-04-21T03:46:55.691Z,31.10
2019-04-21T03:49:27.836Z,31.20
2019-04-21T03:52:03.793Z,31.10
2019-04-21T03:54:37.389Z,31.10
2019-04-21T03:59:38.852Z,31.10
2019-04-21T04:02:24.414Z,31.10
2019-04-21T04:05:07.312Z,31.00
2019-04-21T04:08:08.708Z,30.90
2019-04-21T04:10:22.913Z,30.90
2019-04-21T04:13:01.492Z,31.00
2019-04-21T04:15:42.972Z,30.80
2019-04-21T04:18:07.634Z,30.50
2019-04-21T04:20:48.039Z,30.30
2019-04-21T04:23:13.953Z,30.20
2019-04-21T04:28:23.023Z,30.10
2019-04-21T04:30:52.414Z,30.00
2019-04-21T04:33:37.732Z,30.00
2019-04-21T04:36:15.471Z,30.00
2019-04-21T04:38:46.815Z,29.90
2019-04-21T04:43:54.904Z,29.80
2019-04-21T04:46:29.041Z,29.70
2019-04-21T04:49:01.734Z,29.70
2019-04-21T04:51:48.361Z,29.50
2019-04-21T04:54:17.126Z,29.50
2019-04-21T04:56:38.386Z,29.40
2019-04-21T05:04:30.394Z,29.60
2019-04-21T05:11:55.399Z,29.50
2019-04-21T05:14:30.318Z,29.60
2019-04-21T05:17:14.106Z,29.60
2019-04-21T05:19:42.636Z,29.80
2019-04-21T05:22:20.230Z,29.80
2019-04-21T05:24:42.340Z,29.90
2019-04-21T05:27:25.332Z,29.80
2019-04-21T05:30:15.404Z,29.80
2019-04-21T05:32:58.290Z,29.90
2019-04-21T05:35:45.207Z,29.90
2019-04-21T05:38:21.831Z,30.00
2019-04-21T05:40:52.394Z,30.00
2019-04-21T05:43:32.457Z,29.80
2019-04-21T05:46:04.401Z,29.90
2019-04-21T05:48:46.909Z,29.90
2019-04-21T05:51:18.832Z,30.00
2019-04-21T05:54:04.900Z,30.20
2019-04-21T05:56:30.620Z,30.30
2019-04-21T05:59:00.656Z,30.30
2019-04-21T06:04:16.934Z,30.10
2019-04-21T06:06:51.499Z,30.20
2019-04-21T06:09:19.194Z,30.30
2019-04-21T06:11:51.330Z,30.40
2019-04-21T06:14:30.494Z,30.50
2019-04-21T06:17:01.546Z,30.50
2019-04-21T06:19:37.887Z,30.40
2019-04-21T06:22:03.593Z,30.30
2019-04-21T06:24:42.302Z,30.20
2019-04-21T06:27:16.287Z,30.30
2019-04-21T06:29:50.262Z,30.50
2019-04-21T06:32:35.914Z,30.50
2019-04-21T06:42:48.562Z,30.80
2019-04-21T06:45:25.427Z,30.70
2019-04-21T06:47:50.078Z,30.80
2019-04-21T06:50:24.248Z,30.70
2019-04-21T06:53:01.027Z,30.80
2019-04-21T06:55:49.710Z,30.70
2019-04-21T06:58:05.095Z,30.90
2019-04-21T07:00:38.542Z,30.90
2019-04-21T07:03:20.708Z,31.10
2019-04-21T07:05:48.455Z,31.30
2019-04-21T07:08:31.335Z,31.50
2019-04-21T07:10:51.794Z,31.70
2019-04-21T07:13:26.370Z,31.60
2019-04-21T07:16:09.093Z,31.70
2019-04-21T07:18:36.950Z,31.80
2019-04-21T07:21:08.168Z,31.90
2019-04-21T07:23:47.226Z,31.90
2019-04-21T07:26:19.696Z,32.10
2019-04-21T07:28:56.889Z,32.20
2019-04-21T07:31:25.188Z,32.20
2019-04-21T07:33:58.710Z,32.20
2019-04-21T07:36:38.259Z,32.40
2019-04-21T07:39:00.484Z,32.30
2019-04-21T07:41:34.020Z,32.40
2019-04-21T07:43:59.163Z,32.30
2019-04-21T07:46:37.178Z,32.20
2019-04-21T07:49:43.645Z,31.90
2019-04-21T07:52:28.316Z,31.70
2019-04-21T07:55:12.434Z,31.90
2019-04-21T07:57:33.221Z,32.20
2019-04-21T08:02:47.679Z,32.20
2019-04-21T08:07:51.930Z,32.40
2019-04-21T08:10:22.546Z,32.60
2019-04-21T08:12:54.449Z,32.40
2019-04-21T08:15:44.155Z,32.60
2019-04-21T08:18:09.202Z,32.60
2019-04-21T08:20:35.130Z,32.60
2019-04-21T08:23:13.086Z,32.60
2019-04-21T08:25:53.091Z,32.70
2019-04-21T08:28:19.197Z,32.80
2019-04-21T08:30:56.808Z,32.80
2019-04-21T08:33:37.175Z,32.90
2019-04-21T08:38:36.237Z,32.70
2019-04-21T08:41:08.601Z,33.00
2019-04-21T08:43:48.213Z,33.30
2019-04-21T08:46:22.721Z,33.10
2019-04-21T08:51:43.745Z,33.60
2019-04-21T08:54:01.415Z,33.80
2019-04-21T08:57:01.173Z,34.00
2019-04-21T09:00:08.800Z,34.20
2019-04-21T09:03:02.530Z,34.30
2019-04-21T09:05:29.537Z,34.60
2019-04-21T09:08:10.742Z,35.00
2019-04-21T09:10:39.203Z,34.90
2019-04-21T09:13:10.268Z,35.10
2019-04-21T09:15:47.408Z,35.10
2019-04-21T09:18:21.463Z,35.40
2019-04-21T09:21:01.116Z,35.30
2019-04-21T09:23:25.666Z,35.40
2019-04-21T09:26:08.224Z,35.30
2019-04-21T09:28:32.500Z,35.50
2019-04-21T09:30:55.953Z,35.60
2019-04-21T09:33:33.418Z,35.70
2019-04-21T09:36:02.554Z,35.80
2019-04-21T09:38:37.135Z,35.90
2019-04-21T09:41:06.776Z,36.30
2019-04-21T09:43:45.270Z,36.60
2019-04-21T09:46:14.217Z,36.70
2019-04-21T09:48:53.764Z,37.00
2019-04-21T09:51:21.231Z,37.30
2019-04-21T09:54:00.909Z,37.00
2019-04-21T09:56:36.016Z,36.80
2019-04-21T09:59:11.744Z,36.60
2019-04-21T10:01:49.137Z,36.60
2019-04-21T10:04:07.896Z,36.50
2019-04-21T10:06:40.101Z,36.60
2019-04-21T10:09:14.858Z,36.60
2019-04-21T10:11:46.467Z,36.60
2019-04-21T10:14:19.461Z,36.50
2019-04-21T10:31:12.903Z,34.70
2019-04-21T10:33:46.529Z,36.10
2019-04-21T10:36:19.110Z,36.40
2019-04-21T10:38:53.979Z,36.60
2019-04-21T10:41:27.484Z,36.70
2019-04-21T10:44:01.026Z,36.80
2019-04-21T10:46:34.874Z,37.10
2019-04-21T10:49:07.031Z,37.40
2019-04-21T10:51:39.337Z,37.60
2019-04-21T10:54:11.795Z,37.80
2019-04-21T10:56:45.585Z,37.60
2019-04-21T10:59:18.287Z,37.80
2019-04-21T11:01:50.740Z,37.50
2019-04-21T11:04:32.298Z,37.40
2019-04-21T11:07:06.976Z,36.80
2019-04-21T11:09:36.132Z,36.60
2019-04-21T11:12:10.068Z,36.80
2019-04-21T11:14:43.094Z,36.80
2019-04-21T11:17:16.440Z,36.90
2019-04-21T11:19:48.604Z,36.90
2019-04-21T11:22:20.940Z,36.60
2019-04-21T11:24:53.450Z,37.10
2019-04-21T11:27:26.819Z,37.20
2019-04-21T11:29:59.832Z,36.90
2019-04-21T11:32:32.813Z,37.10
2019-04-21T11:35:07.388Z,37.20
2019-04-21T11:37:39.962Z,37.60
2019-04-21T11:40:14.982Z,37.40
2019-04-21T11:42:48.033Z,37.60
2019-04-21T11:45:32.797Z,37.80
2019-04-21T11:48:26.246Z,37.80
2019-04-21T11:50:59.257Z,37.10
2019-04-21T11:53:32.855Z,36.90
2019-04-21T11:56:05.328Z,36.20
2019-04-21T11:58:37.341Z,35.50
2019-04-21T12:01:09.651Z,36.00
2019-04-21T12:03:42.290Z,35.70
2019-04-21T12:06:15.337Z,35.40
2019-04-21T12:08:50.917Z,34.40
2019-04-21T12:11:21.315Z,34.20
2019-04-21T12:13:54.256Z,35.10
2019-04-21T12:16:26.443Z,35.30
2019-04-21T12:18:58.834Z,35.90
2019-04-21T12:21:45.164Z,34.80
2019-04-21T12:24:04.949Z,34.70
2019-04-21T12:26:37.943Z,35.00
2019-04-21T12:29:10.332Z,34.90
2019-04-21T12:32:01.343Z,35.80
2019-04-21T12:34:34.266Z,35.90
2019-04-21T12:37:06.687Z,35.90
2019-04-21T12:39:38.856Z,35.10
2019-04-21T12:42:12.242Z,34.50
2019-04-21T12:44:45.414Z,33.90
2019-04-21T12:47:19.566Z,34.00
2019-04-21T12:49:52.087Z,35.00
2019-04-21T12:52:24.193Z,35.50
2019-04-21T12:54:57.528Z,35.50
2019-04-21T12:57:31.492Z,36.10
2019-04-21T13:00:04.725Z,36.60
2019-04-21T13:02:37.949Z,37.00
2019-04-21T13:05:11.648Z,36.20
2019-04-21T13:07:43.761Z,36.70
2019-04-21T13:10:18.309Z,37.30
2019-04-21T13:12:50.418Z,37.50
2019-04-21T13:15:22.421Z,37.60
2019-04-21T13:17:54.628Z,38.60
2019-04-21T13:20:29.497Z,38.80
2019-04-21T13:23:05.935Z,39.00
2019-04-21T13:25:38.224Z,38.50
2019-04-21T13:28:10.504Z,38.50
2019-04-21T13:30:42.615Z,38.50
2019-04-21T13:33:15.437Z,38.20
2019-04-21T13:35:48.823Z,38.20
2019-04-21T13:38:32.327Z,38.20
2019-04-21T13:41:27.348Z,38.00
2019-04-21T13:43:45.476Z,37.20
2019-04-21T13:46:17.772Z,37.10
2019-04-21T13:48:50.719Z,36.90
2019-04-21T13:51:23.186Z,37.00
2019-04-21T13:53:55.507Z,37.20
2019-04-21T13:56:28.912Z,37.70
2019-04-21T13:59:02.259Z,38.00
2019-04-21T14:01:35.851Z,37.70
2019-04-21T14:04:09.542Z,37.30
2019-04-21T14:06:42.443Z,37.10
2019-04-21T14:09:15.679Z,37.10
2019-04-21T14:11:49.317Z,36.60
2019-04-21T14:14:21.462Z,36.00
2019-04-21T14:16:54.236Z,36.10
2019-04-21T14:19:27.705Z,35.70
2019-04-21T14:22:01.208Z,34.80
2019-04-21T14:24:33.404Z,34.00
2019-04-21T14:27:05.978Z,33.90
2019-04-21T14:29:39.578Z,33.60
2019-04-21T14:32:11.519Z,33.90
2019-04-21T14:34:44.098Z,34.60
2019-04-21T14:37:17.008Z,34.80
2019-04-21T14:39:57.822Z,34.50
2019-04-21T14:42:24.273Z,34.60
2019-04-21T14:44:56.814Z,34.80
2019-04-21T14:47:54.313Z,35.40
2019-04-21T14:50:42.177Z,35.50
2019-04-21T14:53:25.543Z,35.90
2019-04-21T14:55:57.616Z,35.80
2019-04-21T14:58:30.848Z,35.70
2019-04-21T15:01:08.296Z,35.90
2019-04-21T15:03:41.682Z,35.90
2019-04-21T15:06:13.632Z,35.70
2019-04-21T15:08:47.000Z,35.80
2019-04-21T15:11:20.033Z,35.40
2019-04-21T15:13:53.623Z,35.70
2019-04-21T15:16:26.647Z,35.90
2019-04-21T15:18:59.142Z,36.10
2019-04-21T15:21:33.877Z,35.70
2019-04-21T15:24:06.543Z,35.20
2019-04-21T15:26:40.038Z,34.80
2019-04-21T15:29:12.869Z,34.20
2019-04-21T15:31:45.355Z,34.30
2019-04-21T15:34:22.055Z,34.60
2019-04-21T15:36:52.958Z,34.80
2019-04-21T15:39:25.751Z,34.40
2019-04-21T15:41:58.902Z,34.40
2019-04-21T15:44:32.418Z,35.00
2019-04-21T15:47:06.012Z,35.40
2019-04-21T15:50:03.617Z,35.50
2019-04-21T15:52:31.789Z,35.10
2019-04-21T15:55:14.985Z,35.10
2019-04-21T15:58:02.607Z,35.20
2019-04-21T16:00:42.615Z,34.50
2019-04-21T16:03:14.650Z,34.30
2019-04-21T16:05:46.895Z,34.20
2019-04-21T16:08:18.734Z,34.30
2019-04-21T16:10:56.556Z,34.60
2019-04-21T16:13:25.695Z,34.90
2019-04-21T16:15:58.822Z,34.90
2019-04-21T16:18:31.997Z,35.20
2019-04-21T16:21:06.020Z,35.60
2019-04-21T16:23:38.365Z,35.60
2019-04-21T16:26:10.871Z,35.70
2019-04-21T16:28:43.326Z,35.70
2019-04-21T16:31:16.337Z,35.80
2019-04-21T16:33:49.202Z,35.60
2019-04-21T16:36:21.640Z,35.50
2019-04-21T16:38:53.679Z,34.90
2019-04-21T16:41:26.865Z,34.50
2019-04-21T16:43:58.920Z,34.20
2019-04-21T16:46:31.703Z,34.00
2019-04-21T16:49:04.152Z,33.80
2019-04-21T16:51:38.053Z,33.90
2019-04-21T16:54:19.963Z,32.70
2019-04-21T16:57:08.275Z,32.20
2019-04-21T16:59:44.345Z,31.70
2019-04-21T17:02:18.574Z,31.20
2019-04-21T17:04:52.105Z,30.90
2019-04-21T17:07:24.532Z,31.40
2019-04-21T17:09:56.905Z,31.10
2019-04-21T17:12:31.188Z,31.40
2019-04-21T17:15:18.760Z,31.70
2019-04-21T17:18:00.801Z,31.60
2019-04-21T17:20:25.931Z,31.40
2019-04-21T17:22:46.958Z,30.50
2019-04-21T17:25:21.671Z,30.40
2019-04-21T17:27:54.545Z,29.90
2019-04-21T17:30:26.941Z,29.60
2019-04-21T17:32:59.588Z,29.00
2019-04-21T17:35:32.945Z,28.50
2019-04-21T17:38:06.017Z,28.70
2019-04-21T17:40:38.030Z,29.30
2019-04-21T17:43:14.321Z,29.50
2019-04-21T17:45:44.896Z,29.70
2019-04-21T17:48:18.430Z,29.90
2019-04-21T17:51:09.661Z,30.00
2019-04-21T17:53:58.688Z,30.00
2019-04-21T17:56:53.743Z,29.60
2019-04-21T17:59:28.131Z,29.90
2019-04-21T18:02:09.376Z,29.40
2019-04-21T18:04:30.731Z,29.20
2019-04-21T18:07:26.264Z,29.10
2019-04-21T18:10:14.383Z,28.80
2019-04-21T18:12:40.782Z,28.90
2019-04-21T18:15:16.168Z,29.30
2019-04-21T18:17:27.038Z,29.60
2019-04-21T18:19:59.705Z,29.80
2019-04-21T18:22:51.311Z,29.30
2019-04-21T18:25:37.508Z,29.00
2019-04-21T18:27:58.853Z,29.20
2019-04-21T18:31:03.045Z,29.40
2019-04-21T18:33:40.408Z,29.50
2019-04-21T18:36:49.774Z,29.80
2019-04-21T18:39:46.415Z,29.30
2019-04-21T18:42:47.886Z,29.60
2019-04-21T18:45:48.021Z,29.70
2019-04-21T18:48:32.822Z,29.40
2019-04-21T18:51:14.164Z,29.40
2019-04-21T18:54:17.688Z,29.30
2019-04-21T18:56:31.633Z,29.50
2019-04-21T18:59:04.444Z,29.50
2019-04-21T19:01:38.439Z,29.50
2019-04-21T19:04:14.300Z,29.50
2019-04-21T19:07:02.980Z,28.80
2019-04-21T19:09:47.422Z,29.00
2019-04-21T19:12:16.741Z,28.70
2019-04-21T19:14:43.073Z,28.20
2019-04-21T19:17:48.351Z,28.70
2019-04-21T19:19:55.884Z,29.30
2019-04-21T19:22:28.155Z,29.70
2019-04-21T19:25:04.784Z,29.80
2019-04-21T19:27:31.126Z,29.80
2019-04-21T19:30:28.758Z,29.90
2019-04-21T19:32:39.049Z,30.30
2019-04-21T19:34:59.678Z,30.60
2019-04-21T19:37:40.120Z,30.50
2019-04-21T19:40:16.341Z,30.50
2019-04-21T19:42:51.220Z,30.60
2019-04-21T19:45:29.386Z,30.70
2019-04-21T19:48:05.570Z,30.90
2019-04-21T19:50:43.936Z,30.90
2019-04-21T19:53:02.955Z,31.00
2019-04-21T19:55:28.292Z,31.10
2019-04-21T19:58:00.972Z,31.20
2019-04-21T20:00:34.655Z,31.30
2019-04-21T20:03:08.432Z,31.20
2019-04-21T20:05:47.651Z,31.00
2019-04-21T20:08:28.069Z,30.90
2019-04-21T20:11:10.707Z,30.90
2019-04-21T20:13:59.790Z,31.00
2019-04-21T20:16:15.098Z,31.00
2019-04-21T20:18:37.869Z,31.00
2019-04-21T20:21:04.008Z,30.90
2019-04-21T20:23:39.715Z,30.80
2019-04-21T20:26:12.206Z,30.80
2019-04-21T20:28:54.700Z,30.80
2019-04-21T20:31:36.738Z,30.80
2019-04-21T20:34:14.116Z,30.70
2019-04-21T20:36:51.424Z,30.60
2019-04-21T20:39:07.307Z,30.60
2019-04-21T20:41:46.831Z,30.50
2019-04-21T20:44:24.734Z,30.30
2019-04-21T20:46:59.782Z,30.20
2019-04-21T20:49:27.517Z,30.10
2019-04-21T20:52:13.526Z,30.30
2019-04-21T20:54:41.009Z,30.40
2019-04-21T20:57:18.866Z,30.60
2019-04-21T20:59:44.035Z,30.70
2019-04-21T21:02:21.097Z,30.70
2019-04-21T21:04:49.233Z,30.70
2019-04-21T21:07:41.674Z,30.90
2019-04-21T21:10:04.428Z,31.00
2019-04-21T21:12:43.164Z,31.10
2019-04-21T21:15:04.161Z,31.20
2019-04-21T21:17:53.836Z,31.30
2019-04-21T21:20:26.174Z,31.30
2019-04-21T21:22:50.906Z,31.30
2019-04-21T21:25:36.620Z,31.30
2019-04-21T21:27:54.908Z,31.30
2019-04-21T21:30:34.641Z,31.30
2019-04-21T21:33:12.603Z,31.30
2019-04-21T21:35:40.999Z,31.20
2019-04-21T21:38:19.736Z,31.20
2019-04-21T21:40:51.722Z,31.20
2019-04-21T21:43:17.621Z,31.20
2019-04-21T21:45:51.274Z,31.20
2019-04-21T21:48:31.772Z,31.30
2019-04-21T21:51:04.187Z,31.30
2019-04-21T21:53:30.144Z,31.20
2019-04-21T21:56:00.710Z,31.20
2019-04-21T21:58:38.644Z,31.20
2019-04-21T22:01:11.751Z,31.30
2019-04-21T22:03:47.238Z,31.30
2019-04-21T22:06:22.731Z,31.30
2019-04-21T22:08:52.704Z,31.30
2019-04-21T22:11:26.014Z,31.30
2019-04-21T22:14:04.367Z,31.30
2019-04-21T22:16:46.645Z,31.30
2019-04-21T22:19:21.913Z,31.30
2019-04-21T22:22:00.687Z,31.30
2019-04-21T22:24:35.155Z,31.30
2019-04-21T22:26:49.514Z,31.30
2019-04-21T22:29:21.607Z,31.30
2019-04-21T22:32:04.210Z,31.30
2019-04-21T22:34:33.870Z,31.20
2019-04-21T22:37:18.049Z,31.10
2019-04-21T22:39:51.573Z,31.10
2019-04-21T22:42:15.443Z,31.00
2019-04-21T22:44:42.906Z,31.00
2019-04-21T22:47:22.204Z,31.00
2019-04-21T22:49:48.708Z,31.00
2019-04-21T22:52:24.032Z,31.00
2019-04-21T22:54:55.829Z,31.00
2019-04-21T22:57:32.476Z,31.00
2019-04-21T23:00:07.080Z,31.00
2019-04-21T23:02:39.281Z,31.00
2019-04-21T23:05:11.441Z,31.00
2019-04-21T23:07:50.226Z,31.00
2019-04-21T23:10:19.207Z,31.00
2019-04-21T23:12:52.199Z,31.00
2019-04-21T23:15:36.854Z,31.00
2019-04-21T23:18:22.998Z,31.00
2019-04-21T23:20:53.566Z,30.90
2019-04-21T23:23:29.709Z,30.90
2019-04-21T23:25:56.016Z,30.80
2019-04-21T23:28:38.557Z,30.80
2019-04-21T23:31:06.736Z,30.80
2019-04-21T23:33:22.098Z,30.70
2019-04-21T23:36:02.625Z,30.70
2019-04-21T23:38:36.541Z,30.70
2019-04-21T23:41:05.620Z,30.60
2019-04-21T23:43:38.157Z,30.60
2019-04-21T23:46:18.838Z,30.60
2019-04-21T23:49:01.809Z,30.40
2019-04-21T23:51:31.397Z,30.30
2019-04-21T23:53:51.245Z,30.30
2019-04-21T23:56:30.312Z,30.40
